createdAt,value
2018-04-10T00:01:38.589Z,21.00
2018-04-10T00:04:05.799Z,19.37
2018-04-10T00:06:32.127Z,20.00
2018-04-10T00:08:58.616Z,23.07
2018-04-10T00:11:25.225Z,22.43
2018-04-10T00:13:51.633Z,21.37
2018-04-10T00:16:18.046Z,21.30
2018-04-10T00:18:44.387Z,20.63
2018-04-10T00:21:10.748Z,19.40
2018-04-10T00:23:37.114Z,19.97
2018-04-10T00:26:03.501Z,18.67
2018-04-10T00:28:29.933Z,18.87
2018-04-10T00:30:56.330Z,22.30
2018-04-10T00:33:22.720Z,23.40
2018-04-10T00:35:49.809Z,19.60
2018-04-10T00:38:16.238Z,20.07
2018-04-10T00:40:42.655Z,21.60
2018-04-10T00:43:09.016Z,22.03
2018-04-10T00:45:35.524Z,20.37
2018-04-10T00:48:01.864Z,20.07
2018-04-10T00:50:28.211Z,20.87
2018-04-10T00:53:13.185Z,23.80
2018-04-10T00:55:39.541Z,20.07
2018-04-10T00:58:05.893Z,21.67
2018-04-10T01:00:33.023Z,22.70
2018-04-10T01:02:59.341Z,20.33
2018-04-10T01:05:25.703Z,19.97
2018-04-10T01:07:52.877Z,20.87
2018-04-10T01:10:19.203Z,18.60
2018-04-10T01:12:45.805Z,19.27
2018-04-10T01:15:12.176Z,21.03
2018-04-10T01:17:38.502Z,19.70
2018-04-10T01:20:04.835Z,19.33
2018-04-10T01:22:31.235Z,18.40
2018-04-10T01:24:57.621Z,20.80
2018-04-10T01:27:23.963Z,21.47
2018-04-10T01:29:50.431Z,22.70
2018-04-10T01:32:16.869Z,19.00
2018-04-10T01:34:44.039Z,19.40
2018-04-10T01:37:10.379Z,19.83
2018-04-10T01:39:37.020Z,22.80
2018-04-10T01:42:03.450Z,19.93
2018-04-10T01:44:30.600Z,23.97
2018-04-10T01:46:56.970Z,22.73
2018-04-10T01:49:23.344Z,20.60
2018-04-10T01:51:50.492Z,21.10
2018-04-10T01:54:17.599Z,22.13
2018-04-10T01:56:44.015Z,25.10
2018-04-10T01:59:10.467Z,22.30
2018-04-10T02:01:36.849Z,21.20
2018-04-10T02:04:03.300Z,20.03
2018-04-10T02:06:29.629Z,20.10
2018-04-10T02:08:56.782Z,20.17
2018-04-10T02:11:47.896Z,21.10
2018-04-10T02:14:14.407Z,20.97
2018-04-10T02:16:40.917Z,19.97
2018-04-10T02:19:07.417Z,21.27
2018-04-10T02:21:33.915Z,20.40
2018-04-10T02:24:00.415Z,21.07
2018-04-10T02:26:26.908Z,20.27
2018-04-10T02:28:53.381Z,21.57
2018-04-10T02:31:19.883Z,22.37
2018-04-10T02:33:46.388Z,20.70
2018-04-10T02:36:12.823Z,20.80
2018-04-10T02:38:39.324Z,23.10
2018-04-10T02:41:05.795Z,23.13
2018-04-10T02:43:32.287Z,21.27
2018-04-10T02:45:58.820Z,24.13
2018-04-10T02:48:25.304Z,20.87
2018-04-10T02:50:51.797Z,22.80
2018-04-10T02:53:18.229Z,25.67
2018-04-10T02:55:44.765Z,20.70
2018-04-10T02:58:11.256Z,36.13
2018-04-10T03:00:37.733Z,21.83
2018-04-10T03:03:04.954Z,21.10
2018-04-10T03:05:31.435Z,20.47
2018-04-10T03:07:58.042Z,20.47
2018-04-10T03:10:24.499Z,21.73
2018-04-10T03:12:51.826Z,20.37
2018-04-10T03:15:18.355Z,21.37
2018-04-10T03:17:44.856Z,21.77
2018-04-10T03:20:11.611Z,21.20
2018-04-10T03:22:38.096Z,20.50
2018-04-10T03:25:04.630Z,20.70
2018-04-10T03:27:31.135Z,19.23
2018-04-10T03:29:57.568Z,19.27
2018-04-10T03:32:24.116Z,19.43
2018-04-10T03:34:50.579Z,17.80
2018-04-10T03:37:17.114Z,22.80
2018-04-10T03:39:43.660Z,20.73
2018-04-10T03:42:10.116Z,21.67
2018-04-10T03:44:37.387Z,18.57
2018-04-10T03:47:03.824Z,19.93
2018-04-10T03:49:30.332Z,18.73
2018-04-10T03:51:56.813Z,19.83
2018-04-10T03:54:23.176Z,21.07
2018-04-10T03:56:49.611Z,19.30
2018-04-10T03:59:15.982Z,18.67
2018-04-10T04:01:42.327Z,19.27
2018-04-10T04:04:08.682Z,20.33
2018-04-10T04:06:35.826Z,20.47
2018-04-10T04:09:02.463Z,18.10
2018-04-10T04:11:28.819Z,19.30
2018-04-10T04:13:55.226Z,20.30
2018-04-10T04:16:39.915Z,18.00
2018-04-10T04:19:24.687Z,17.93
2018-04-10T04:22:16.540Z,19.60
2018-04-10T04:24:42.923Z,20.17
2018-04-10T04:27:09.992Z,20.17
2018-04-10T04:29:36.378Z,22.87
2018-04-10T04:32:03.755Z,20.10
2018-04-10T04:34:30.841Z,21.40
2018-04-10T04:36:58.055Z,18.10
2018-04-10T04:39:25.140Z,44.13
2018-04-10T04:41:51.668Z,43.73
2018-04-10T04:44:18.007Z,43.87
2018-04-10T04:46:44.343Z,24.73
2018-04-10T04:49:10.734Z,30.77
2018-04-10T04:51:37.123Z,28.57
2018-04-10T04:54:03.563Z,29.53
2018-04-10T04:56:29.911Z,22.03
2018-04-10T04:58:56.301Z,20.47
2018-04-10T05:01:22.656Z,18.13
2018-04-10T05:03:49.008Z,17.83
2018-04-10T05:06:15.447Z,18.30
2018-04-10T05:08:42.613Z,17.80
2018-04-10T05:11:09.059Z,37.80
2018-04-10T05:13:35.455Z,47.17
2018-04-10T05:16:02.535Z,30.07
2018-04-10T05:18:28.997Z,21.40
2018-04-10T05:20:55.347Z,18.93
2018-04-10T05:23:21.692Z,23.23
2018-04-10T05:25:48.816Z,17.97
2018-04-10T05:28:15.253Z,17.50
2018-04-10T05:30:41.664Z,19.47
2018-04-10T05:33:08.017Z,24.70
2018-04-10T05:35:34.505Z,18.33
2018-04-10T05:38:00.915Z,16.93
2018-04-10T05:40:28.001Z,17.30
2018-04-10T05:42:55.148Z,16.03
2018-04-10T05:45:21.554Z,19.43
2018-04-10T05:47:48.644Z,15.73
2018-04-10T05:50:15.017Z,18.90
2018-04-10T05:52:41.423Z,15.43
2018-04-10T05:55:07.856Z,17.67
2018-04-10T05:57:34.272Z,16.00
2018-04-10T06:00:00.754Z,56.23
2018-04-10T06:02:27.884Z,48.33
2018-04-10T06:04:54.217Z,20.73
2018-04-10T06:07:20.647Z,21.10
2018-04-10T06:09:47.101Z,15.40
2018-04-10T06:12:14.196Z,17.07
2018-04-10T06:14:40.583Z,17.20
2018-04-10T06:17:07.092Z,18.00
2018-04-10T06:19:33.524Z,14.60
2018-04-10T06:21:59.877Z,17.43
2018-04-10T06:24:26.988Z,17.00
2018-04-10T06:26:53.368Z,16.10
2018-04-10T06:29:19.781Z,16.20
2018-04-10T06:31:46.192Z,17.97
2018-04-10T06:34:12.549Z,17.00
2018-04-10T06:36:38.891Z,16.80
2018-04-10T06:39:05.315Z,20.93
2018-04-10T06:41:32.481Z,17.17
2018-04-10T06:43:59.175Z,17.87
2018-04-10T06:46:25.668Z,20.00
2018-04-10T06:48:52.058Z,18.07
2018-04-10T06:51:18.395Z,17.33
2018-04-10T06:53:44.831Z,17.73
2018-04-10T06:56:11.260Z,24.37
2018-04-10T06:58:37.669Z,18.23
2018-04-10T07:01:04.101Z,22.33
2018-04-10T07:03:30.453Z,43.30
2018-04-10T07:05:57.576Z,48.93
2018-04-10T07:08:23.970Z,28.83
2018-04-10T07:10:50.477Z,20.67
2018-04-10T07:13:17.657Z,35.10
2018-04-10T07:15:44.733Z,45.88
2018-04-10T07:18:11.099Z,53.27
2018-04-10T07:20:37.510Z,32.30
2018-04-10T07:23:03.869Z,31.23
2018-04-10T07:25:31.003Z,34.37
2018-04-10T07:27:57.390Z,18.00
2018-04-10T07:30:23.747Z,20.77
2018-04-10T07:32:50.172Z,15.63
2018-04-10T07:35:16.508Z,16.00
2018-04-10T07:37:42.925Z,24.80
2018-04-10T07:40:09.304Z,13.40
2018-04-10T07:42:35.723Z,11.90
2018-04-10T07:45:02.220Z,11.57
2018-04-10T07:47:28.607Z,11.77
2018-04-10T07:49:55.712Z,12.97
2018-04-10T07:52:22.075Z,12.43
2018-04-10T07:54:49.210Z,17.43
2018-04-10T07:57:15.608Z,13.20
2018-04-10T07:59:41.967Z,12.07
2018-04-10T08:02:08.394Z,11.10
2018-04-10T08:04:34.759Z,11.30
2018-04-10T08:07:02.280Z,12.57
2018-04-10T08:09:28.846Z,16.30
2018-04-10T08:11:55.960Z,11.83
2018-04-10T08:14:22.404Z,14.07
2018-04-10T08:16:48.853Z,12.83
2018-04-10T08:19:15.359Z,9.57
2018-04-10T08:21:42.026Z,12.47
2018-04-10T08:24:08.420Z,9.57
2018-04-10T08:26:34.818Z,11.00
2018-04-10T08:29:02.019Z,9.30
2018-04-10T08:31:28.496Z,10.97
2018-04-10T08:33:54.938Z,10.70
2018-04-10T08:36:21.355Z,9.33
2018-04-10T08:38:48.577Z,8.60
2018-04-10T08:41:15.035Z,9.70
2018-04-10T08:43:41.392Z,9.03
2018-04-10T08:46:07.907Z,8.87
2018-04-10T08:48:35.000Z,17.80
2018-04-10T08:51:01.418Z,13.53
2018-04-10T08:53:27.774Z,9.20
2018-04-10T08:55:54.175Z,8.13
2018-04-10T08:58:21.395Z,11.17
2018-04-10T09:00:48.598Z,8.87
2018-04-10T09:03:14.974Z,6.40
2018-04-10T09:05:41.406Z,6.20
2018-04-10T09:08:07.864Z,6.00
2018-04-10T09:10:34.305Z,5.53
2018-04-10T09:13:00.804Z,5.40
2018-04-10T09:15:27.275Z,5.90
2018-04-10T09:17:53.693Z,7.00
2018-04-10T09:20:20.817Z,11.03
2018-04-10T09:22:47.276Z,9.13
2018-04-10T09:25:14.530Z,8.83
2018-04-10T09:27:40.978Z,6.13
2018-04-10T09:30:07.435Z,4.53
2018-04-10T09:32:34.265Z,6.43
2018-04-10T09:35:00.816Z,11.17
2018-04-10T09:37:27.301Z,4.87
2018-04-10T09:39:53.804Z,5.17
2018-04-10T09:42:20.250Z,5.10
2018-04-10T09:44:47.457Z,8.40
2018-04-10T09:47:13.967Z,6.17
2018-04-10T09:49:40.409Z,6.37
2018-04-10T09:52:06.859Z,6.57
2018-04-10T09:54:33.359Z,5.93
2018-04-10T09:57:00.227Z,7.27
2018-04-10T09:59:28.720Z,8.90
2018-04-10T10:01:55.265Z,5.77
2018-04-10T10:04:21.679Z,8.23
2018-04-10T10:06:48.256Z,8.43
2018-04-10T10:09:14.818Z,19.30
2018-04-10T10:11:41.538Z,7.30
2018-04-10T10:14:08.876Z,6.27
2018-04-10T10:16:35.343Z,7.70
2018-04-10T10:19:01.933Z,7.33
2018-04-10T10:21:28.448Z,11.00
2018-04-10T10:23:54.988Z,7.53
2018-04-10T10:26:21.467Z,7.73
2018-04-10T10:28:48.745Z,6.37
2018-04-10T10:31:15.255Z,7.30
2018-04-10T10:33:41.701Z,18.07
2018-04-10T10:36:08.232Z,9.33
2018-04-10T10:38:36.514Z,8.10
2018-04-10T10:41:03.671Z,7.67
2018-04-10T10:43:30.279Z,6.83
2018-04-10T10:45:56.777Z,7.87
2018-04-10T10:48:23.250Z,8.60
2018-04-10T10:50:49.762Z,11.43
2018-04-10T10:53:16.588Z,9.20
2018-04-10T10:55:43.155Z,8.40
2018-04-10T10:58:09.603Z,9.70
2018-04-10T11:00:36.165Z,10.20
2018-04-10T11:03:02.765Z,25.40
2018-04-10T11:05:29.226Z,9.80
2018-04-10T11:07:56.542Z,10.47
2018-04-10T11:10:22.879Z,8.63
2018-04-10T11:12:49.450Z,7.67
2018-04-10T11:15:15.883Z,12.07
2018-04-10T11:17:42.952Z,7.27
2018-04-10T11:20:09.321Z,9.47
2018-04-10T11:22:35.675Z,8.20
2018-04-10T11:25:02.805Z,10.00
2018-04-10T11:27:29.139Z,8.97
2018-04-10T11:29:55.595Z,11.33
2018-04-10T11:32:22.128Z,12.40
2018-04-10T11:34:49.388Z,5.60
2018-04-10T11:37:16.820Z,7.57
2018-04-10T11:39:44.053Z,5.83
2018-04-10T11:42:10.522Z,5.17
2018-04-10T11:44:37.857Z,6.20
2018-04-10T11:47:04.321Z,6.03
2018-04-10T11:49:30.846Z,6.30
2018-04-10T11:51:57.349Z,8.10
2018-04-10T11:54:23.948Z,6.00
2018-04-10T11:56:50.439Z,6.90
2018-04-10T11:59:17.880Z,10.10
2018-04-10T12:01:44.334Z,7.20
2018-04-10T12:04:11.600Z,9.60
2018-04-10T12:06:39.285Z,8.63
2018-04-10T12:09:06.745Z,8.80
2018-04-10T12:11:34.092Z,10.27
2018-04-10T12:14:00.888Z,9.17
2018-04-10T12:16:27.340Z,7.60
2018-04-10T12:18:55.613Z,8.70
2018-04-10T12:21:22.862Z,7.47
2018-04-10T12:23:50.299Z,10.00
2018-04-10T12:26:17.576Z,7.83
2018-04-10T12:28:44.152Z,5.70
2018-04-10T12:31:10.637Z,6.77
2018-04-10T12:33:38.328Z,4.60
2018-04-10T12:36:04.995Z,5.40
2018-04-10T12:38:31.550Z,6.17
2018-04-10T12:40:58.813Z,5.37
2018-04-10T12:43:25.374Z,4.97
2018-04-10T12:45:51.847Z,5.07
2018-04-10T12:48:18.312Z,4.60
2018-04-10T12:50:44.964Z,4.13
2018-04-10T12:53:12.312Z,4.80
2018-04-10T12:55:38.875Z,5.43
2018-04-10T12:58:06.195Z,5.00
2018-04-10T13:00:32.728Z,5.27
2018-04-10T13:02:59.208Z,5.17
2018-04-10T13:05:25.717Z,4.43
2018-04-10T13:07:52.928Z,4.20
2018-04-10T13:10:19.384Z,3.93
2018-04-10T13:12:45.820Z,4.70
2018-04-10T13:15:12.312Z,4.33
2018-04-10T13:17:38.733Z,5.33
2018-04-10T13:20:05.217Z,6.00
2018-04-10T13:22:31.651Z,3.80
2018-04-10T13:24:58.080Z,5.23
2018-04-10T13:27:24.559Z,6.00
2018-04-10T13:29:50.959Z,4.00
2018-04-10T13:32:17.353Z,4.73
2018-04-10T13:34:43.762Z,5.67
2018-04-10T13:37:10.263Z,7.10
2018-04-10T13:39:36.909Z,4.47
2018-04-10T13:42:03.958Z,6.57
2018-04-10T13:44:30.480Z,4.70
2018-04-10T13:46:57.024Z,5.70
2018-04-10T13:49:24.212Z,6.73
2018-04-10T13:51:51.474Z,6.00
2018-04-10T13:54:18.902Z,4.93
2018-04-10T13:56:45.360Z,8.03
2018-04-10T13:59:11.983Z,5.40
2018-04-10T14:01:38.561Z,4.87
2018-04-10T14:04:05.147Z,5.73
2018-04-10T14:06:34.064Z,6.23
2018-04-10T14:09:01.128Z,9.93
2018-04-10T14:11:27.744Z,10.23
2018-04-10T14:13:54.284Z,6.20
2018-04-10T14:16:21.279Z,11.00
2018-04-10T14:18:47.928Z,8.13
2018-04-10T14:21:14.458Z,8.30
2018-04-10T14:23:41.084Z,10.00
2018-04-10T14:26:07.646Z,10.80
2018-04-10T14:28:34.338Z,10.27
2018-04-10T14:31:00.865Z,8.80
2018-04-10T14:33:27.510Z,7.93
2018-04-10T14:35:54.220Z,8.40
2018-04-10T14:38:20.935Z,8.23
2018-04-10T14:40:47.548Z,7.93
2018-04-10T14:43:14.294Z,7.73
2018-04-10T14:45:41.158Z,7.73
2018-04-10T14:48:07.981Z,8.50
2018-04-10T14:50:34.702Z,8.83
2018-04-10T14:53:01.364Z,9.60
2018-04-10T14:55:28.184Z,9.17
2018-04-10T14:57:55.703Z,7.73
2018-04-10T15:00:23.279Z,7.87
2018-04-10T15:02:49.983Z,7.47
2018-04-10T15:05:17.542Z,7.97
2018-04-10T15:07:44.500Z,6.97
2018-04-10T15:10:11.230Z,7.73
2018-04-10T15:12:38.044Z,7.57
2018-04-10T15:15:05.575Z,8.77
2018-04-10T15:17:32.529Z,9.50
2018-04-10T15:19:59.281Z,8.37
2018-04-10T15:22:26.736Z,8.00
2018-04-10T15:24:54.397Z,7.87
2018-04-10T15:27:21.906Z,7.87
2018-04-10T15:29:48.787Z,8.30
2018-04-10T15:32:16.401Z,11.30
2018-04-10T15:34:43.204Z,8.73
2018-04-10T15:37:10.753Z,10.13
2018-04-10T15:39:37.646Z,13.33
2018-04-10T15:42:04.488Z,11.73
2018-04-10T15:44:31.349Z,9.00
2018-04-10T15:46:58.252Z,13.47
2018-04-10T15:49:25.672Z,12.53
2018-04-10T15:51:52.502Z,16.10
2018-04-10T15:54:19.549Z,8.57
2018-04-10T15:56:46.316Z,8.70
2018-04-10T15:59:13.136Z,7.80
2018-04-10T16:01:39.881Z,8.20
2018-04-10T16:04:06.641Z,8.00
2018-04-10T16:06:33.502Z,8.57
2018-04-10T16:09:00.293Z,8.17
2018-04-10T16:11:27.694Z,10.30
2018-04-10T16:13:54.384Z,9.03
2018-04-10T16:16:21.088Z,8.50
2018-04-10T16:18:47.893Z,9.83
2018-04-10T16:21:15.317Z,9.33
2018-04-10T16:23:42.065Z,13.00
2018-04-10T16:26:08.819Z,10.23
2018-04-10T16:28:36.469Z,10.67
2018-04-10T16:31:03.379Z,11.80
2018-04-10T16:33:30.077Z,10.80
2018-04-10T16:35:56.827Z,9.00
2018-04-10T16:38:24.428Z,9.53
2018-04-10T16:40:51.190Z,9.03
2018-04-10T16:43:18.087Z,11.80
2018-04-10T16:45:44.848Z,10.63
2018-04-10T16:48:11.555Z,12.20
2018-04-10T16:50:39.040Z,10.30
2018-04-10T16:53:05.771Z,12.37
2018-04-10T16:55:33.445Z,9.90
2018-04-10T16:58:00.185Z,12.10
2018-04-10T17:00:26.926Z,12.37
2018-04-10T17:02:53.718Z,13.30
2018-04-10T17:05:21.227Z,13.00
2018-04-10T17:07:48.620Z,12.17
2018-04-10T17:10:15.422Z,11.03
2018-04-10T17:12:42.810Z,48.10
2018-04-10T17:15:09.618Z,56.80
2018-04-10T17:17:36.834Z,42.23
2018-04-10T17:20:03.596Z,17.60
2018-04-10T17:22:30.600Z,12.53
2018-04-10T17:24:58.228Z,12.07
2018-04-10T17:27:25.142Z,12.60
2018-04-10T17:29:51.938Z,12.60
2018-04-10T17:32:18.691Z,14.33
2018-04-10T17:34:46.759Z,12.77
2018-04-10T17:37:13.627Z,14.27
2018-04-10T17:39:40.415Z,15.30
2018-04-10T17:42:08.122Z,15.53
2018-04-10T17:44:35.921Z,16.30
2018-04-10T17:47:02.686Z,14.20
2018-04-10T17:49:29.404Z,13.57
2018-04-10T17:51:56.148Z,14.03
2018-04-10T17:54:22.837Z,53.10
2018-04-10T17:56:50.254Z,19.57
2018-04-10T17:59:17.000Z,16.43
2018-04-10T18:01:43.706Z,17.27
2018-04-10T18:04:10.527Z,13.53
2018-04-10T18:06:38.009Z,16.10
2018-04-10T18:09:04.827Z,15.60
2018-04-10T18:11:33.102Z,15.00
2018-04-10T18:13:59.982Z,16.93
2018-04-10T18:16:26.714Z,15.83
2018-04-10T18:18:54.697Z,16.40
2018-04-10T18:21:21.596Z,14.83
2018-04-10T18:23:48.367Z,15.20
2018-04-10T18:26:15.179Z,15.43
2018-04-10T18:28:42.114Z,17.20
2018-04-10T18:31:09.005Z,14.90
2018-04-10T18:33:36.548Z,18.60
2018-04-10T18:36:03.597Z,19.27
2018-04-10T18:38:30.564Z,20.70
2018-04-10T18:40:58.310Z,21.00
2018-04-10T18:43:25.445Z,20.97
2018-04-10T18:45:52.676Z,24.90
2018-04-10T18:48:19.480Z,25.60
2018-04-10T18:50:46.355Z,25.87
2018-04-10T18:53:14.339Z,28.50
2018-04-10T18:55:42.576Z,24.30
2018-04-10T18:58:09.747Z,26.23
2018-04-10T19:00:36.554Z,24.77
2018-04-10T19:03:03.574Z,24.70
2018-04-10T19:05:30.710Z,24.97
2018-04-10T19:07:58.894Z,28.03
2018-04-10T19:10:27.615Z,25.50
2018-04-10T19:12:56.502Z,26.20
2018-04-10T19:15:24.450Z,27.47
2018-04-10T19:17:51.949Z,28.60
2018-04-10T19:20:19.830Z,28.97
2018-04-10T19:22:47.499Z,25.83
2018-04-10T19:25:15.083Z,26.43
2018-04-10T19:27:42.436Z,29.47
2018-04-10T19:30:09.336Z,42.47
2018-04-10T19:32:36.039Z,88.47
2018-04-10T19:35:02.894Z,106.77
2018-04-10T19:37:29.607Z,115.57
2018-04-10T19:39:56.312Z,35.50
2018-04-10T19:42:23.856Z,30.10
2018-04-10T19:44:50.566Z,28.87
2018-04-10T19:47:17.261Z,31.93
2018-04-10T19:49:44.750Z,27.83
2018-04-10T19:52:11.495Z,26.20
2018-04-10T19:54:38.212Z,25.20
2018-04-10T19:57:05.043Z,22.63
2018-04-10T19:59:31.725Z,24.50
2018-04-10T20:01:58.983Z,25.17
2018-04-10T20:04:25.846Z,23.77
2018-04-10T20:06:52.486Z,24.93
2018-04-10T20:09:19.147Z,29.63
2018-04-10T20:11:45.957Z,27.87
2018-04-10T20:14:12.750Z,26.63
2018-04-10T20:16:39.400Z,25.37
2018-04-10T20:19:06.170Z,37.20
2018-04-10T20:21:33.178Z,87.67
2018-04-10T20:23:59.875Z,35.10
2018-04-10T20:26:26.621Z,23.87
2018-04-10T20:28:53.307Z,22.00
2018-04-10T20:31:20.008Z,21.40
2018-04-10T20:33:47.436Z,20.07
2018-04-10T20:36:14.114Z,21.30
2018-04-10T20:38:40.801Z,23.63
2018-04-10T20:41:07.624Z,25.57
2018-04-10T20:43:34.321Z,22.73
2018-04-10T20:46:01.810Z,22.90
2018-04-10T20:48:29.600Z,20.47
2018-04-10T20:50:56.330Z,19.73
2018-04-10T20:53:22.960Z,19.50
2018-04-10T20:55:49.636Z,20.17
2018-04-10T20:58:16.332Z,19.77
2018-04-10T21:00:43.102Z,16.90
2018-04-10T21:03:09.756Z,16.70
2018-04-10T21:05:36.437Z,17.03
2018-04-10T21:08:03.161Z,19.47
2018-04-10T21:10:30.536Z,17.70
2018-04-10T21:12:57.200Z,17.50
2018-04-10T21:15:23.903Z,19.97
2018-04-10T21:17:50.579Z,19.00
2018-04-10T21:20:17.282Z,19.07
2018-04-10T21:22:43.963Z,21.37
2018-04-10T21:25:11.564Z,19.10
2018-04-10T21:27:38.916Z,19.90
2018-04-10T21:30:06.312Z,19.83
2018-04-10T21:32:32.872Z,19.50
2018-04-10T21:35:00.233Z,18.80
2018-04-10T21:37:26.879Z,19.67
2018-04-10T21:39:53.367Z,18.23
2018-04-10T21:42:19.804Z,19.60
2018-04-10T21:44:46.227Z,18.60
2018-04-10T21:47:12.616Z,19.77
2018-04-10T21:49:39.054Z,21.43
2018-04-10T21:52:06.199Z,20.30
2018-04-10T21:54:32.600Z,19.67
2018-04-10T21:56:58.987Z,20.87
2018-04-10T21:59:26.067Z,19.50
2018-04-10T22:01:53.239Z,21.40
2018-04-10T22:04:19.629Z,23.57
2018-04-10T22:06:46.011Z,22.20
2018-04-10T22:09:12.451Z,23.87
2018-04-10T22:11:38.805Z,24.53
2018-04-10T22:14:05.243Z,22.80
2018-04-10T22:16:31.624Z,23.73
2018-04-10T22:18:58.046Z,23.53
2018-04-10T22:21:24.431Z,21.40
2018-04-10T22:23:51.578Z,22.27
2018-04-10T22:26:18.059Z,23.40
2018-04-10T22:28:44.443Z,24.07
2018-04-10T22:31:10.943Z,24.93
2018-04-10T22:33:37.400Z,24.83
2018-04-10T22:36:03.756Z,25.50
2018-04-10T22:38:30.264Z,23.53
2018-04-10T22:40:56.674Z,21.97
2018-04-10T22:43:23.019Z,23.53
2018-04-10T22:45:49.467Z,24.43
2018-04-10T22:48:15.850Z,25.87
2018-04-10T22:50:42.319Z,24.10
2018-04-10T22:53:08.657Z,23.77
2018-04-10T22:55:35.045Z,23.47
2018-04-10T22:58:01.428Z,23.50
2018-04-10T23:13:54.668Z,22.70
2018-04-10T23:16:24.528Z,22.20
2018-04-10T23:18:53.585Z,20.70
2018-04-10T23:21:23.432Z,20.50
2018-04-10T23:23:52.473Z,21.43
2018-04-10T23:26:21.549Z,21.67
2018-04-10T23:28:50.636Z,22.20
2018-04-10T23:31:19.709Z,22.40
2018-04-10T23:33:48.783Z,24.83
2018-04-10T23:36:18.637Z,21.53
2018-04-10T23:38:47.701Z,21.60
2018-04-10T23:41:17.549Z,20.40
2018-04-10T23:43:46.625Z,21.07
2018-04-10T23:46:15.679Z,18.63
2018-04-10T23:48:44.767Z,21.87
2018-04-10T23:51:15.320Z,19.27
2018-04-10T23:53:45.174Z,20.13
2018-04-10T23:56:14.221Z,19.37
2018-04-10T23:58:44.066Z,19.23
